Time;durP1;ratioP1;P1;durP2;ratioP2;P2;SDS_P1;SDS_P2;PMS_P1;PMS_P2;Temp;Humidity;BMP_temperature;BMP_pressure;BME280_temperature;BME280_humidity;BME280_pressure;Samples;Min_cycle;Max_cycle;Signal;HPM_P1;HPM_P2
2022/03/25 00:00:20;;;;;;;20.38;11.15;;;24.30;36.00;;;;;;6147943;28;82893;-66
2022/03/25 00:03:21;;;;;;;16.48;9.50;;;24.30;36.10;;;;;;6152997;28;83023;-67
2022/03/25 00:06:23;;;;;;;24.25;11.23;;;24.30;36.10;;;;;;6141196;28;84374;-68
2022/03/25 00:09:23;;;;;;;18.02;11.45;;;24.30;36.30;;;;;;6146761;28;83167;-67
2022/03/25 00:12:24;;;;;;;19.90;10.80;;;24.30;36.10;;;;;;6149340;28;82855;-67
2022/03/25 00:15:24;;;;;;;21.77;11.50;;;24.30;36.20;;;;;;6145305;28;82834;-67
2022/03/25 00:18:25;;;;;;;21.17;11.10;;;24.30;36.30;;;;;;6135126;28;83092;-68
2022/03/25 00:21:25;;;;;;;17.55;10.40;;;24.30;36.20;;;;;;6143588;28;83346;-67
2022/03/25 00:24:26;;;;;;;17.15;10.15;;;24.30;35.80;;;;;;6143531;28;83121;-68
2022/03/25 00:27:27;;;;;;;19.08;11.20;;;24.30;36.10;;;;;;6146139;28;84264;-68
2022/03/25 00:30:28;;;;;;;16.35;10.82;;;24.30;35.90;;;;;;6145159;28;85167;-68
2022/03/25 00:33:28;;;;;;;18.02;10.45;;;24.30;36.20;;;;;;6144635;28;83526;-67
2022/03/25 00:36:29;;;;;;;19.15;11.05;;;24.30;35.90;;;;;;6138109;28;83984;-68
2022/03/25 00:39:29;;;;;;;20.00;10.93;;;24.30;36.00;;;;;;6142102;28;83369;-68
2022/03/25 00:42:30;;;;;;;19.17;10.32;;;24.30;36.00;;;;;;6133796;28;83360;-68
2022/03/25 00:45:31;;;;;;;18.67;10.77;;;24.30;35.90;;;;;;6131837;28;82815;-68
2022/03/25 00:48:32;;;;;;;20.60;10.10;;;24.30;35.70;;;;;;6131434;28;83028;-68
2022/03/25 00:51:34;;;;;;;16.58;9.48;;;24.30;35.90;;;;;;6154852;28;83090;-68
2022/03/25 00:54:36;;;;;;;16.77;10.40;;;24.30;35.60;;;;;;6158985;28;84071;-68
2022/03/25 00:57:37;;;;;;;18.00;9.90;;;24.30;35.50;;;;;;6145137;28;83030;-68
2022/03/25 01:00:37;;;;;;;21.10;10.45;;;24.30;35.30;;;;;;6162458;28;81985;-68
2022/03/25 01:03:38;;;;;;;16.13;9.57;;;24.30;35.00;;;;;;6141142;28;83533;-68
2022/03/25 01:06:38;;;;;;;19.35;10.57;;;24.30;35.10;;;;;;6155182;28;84127;-68
2022/03/25 01:09:40;;;;;;;14.18;9.43;;;24.30;35.00;;;;;;6142819;28;83348;-68
2022/03/25 01:12:41;;;;;;;19.67;10.40;;;24.30;35.80;;;;;;6146678;28;85381;-68
2022/03/25 01:15:41;;;;;;;23.13;11.27;;;24.30;35.30;;;;;;6151988;28;82956;-67
2022/03/25 01:18:43;;;;;;;15.40;9.45;;;24.30;34.90;;;;;;6136703;28;85855;-67
2022/03/25 01:21:44;;;;;;;19.98;11.52;;;24.20;35.20;;;;;;6144515;28;83188;-68
2022/03/25 01:24:45;;;;;;;19.42;10.63;;;24.20;35.40;;;;;;6143482;28;84014;-69
2022/03/25 01:27:45;;;;;;;23.58;11.43;;;24.20;35.60;;;;;;6150292;28;83783;-68
2022/03/25 01:30:46;;;;;;;22.05;11.13;;;24.20;35.60;;;;;;6143400;28;83924;-68
2022/03/25 01:33:47;;;;;;;20.38;11.55;;;24.20;35.70;;;;;;6144469;28;83284;-68
2022/03/25 01:36:47;;;;;;;20.42;11.10;;;24.20;35.60;;;;;;6145597;28;83332;-68
2022/03/25 01:39:48;;;;;;;21.42;12.48;;;24.20;35.20;;;;;;6144440;28;83223;-68
2022/03/25 01:42:49;;;;;;;25.70;13.65;;;24.10;35.40;;;;;;6135004;28;83036;-69
2022/03/25 01:45:50;;;;;;;19.50;11.43;;;24.10;35.30;;;;;;6132829;28;85544;-68
2022/03/25 01:48:50;;;;;;;21.55;12.05;;;24.10;35.30;;;;;;6136511;28;83341;-69
2022/03/25 01:51:51;;;;;;;21.38;12.73;;;24.10;35.40;;;;;;6155731;28;83135;-69
2022/03/25 01:54:54;;;;;;;24.55;13.10;;;24.10;35.50;;;;;;6134639;28;82885;-68
2022/03/25 01:57:55;;;;;;;21.85;13.07;;;24.10;35.40;;;;;;6154228;28;84478;-68
2022/03/25 02:00:55;;;;;;;21.00;12.13;;;24.10;35.50;;;;;;6158363;28;83082;-68
2022/03/25 02:03:57;;;;;;;24.08;12.35;;;24.10;35.40;;;;;;6146008;28;83056;-69
2022/03/25 02:06:58;;;;;;;21.90;11.98;;;24.10;35.40;;;;;;6158429;28;83023;-69
2022/03/25 02:09:59;;;;;;;22.40;12.07;;;24.10;35.50;;;;;;6156800;28;85527;-68
2022/03/25 02:13:00;;;;;;;21.30;11.65;;;24.10;35.50;;;;;;6152782;28;83755;-67
2022/03/25 02:16:01;;;;;;;24.85;13.30;;;24.10;35.10;;;;;;6148349;28;86133;-68
2022/03/25 02:19:02;;;;;;;22.83;12.32;;;24.10;35.30;;;;;;6143879;28;85624;-68
2022/03/25 02:22:04;;;;;;;25.80;13.00;;;24.10;35.10;;;;;;6133491;28;84079;-68
2022/03/25 02:25:09;;;;;;;24.42;13.38;;;24.10;35.10;;;;;;6143544;28;85875;-68
2022/03/25 02:28:10;;;;;;;23.23;13.30;;;24.10;35.00;;;;;;6157180;28;85345;-69
2022/03/25 02:31:11;;;;;;;24.70;14.60;;;24.10;35.50;;;;;;6156887;28;85946;-69
2022/03/25 02:34:11;;;;;;;23.52;12.93;;;24.10;35.20;;;;;;6149348;28;83566;-68
2022/03/25 02:37:13;;;;;;;21.98;12.02;;;24.10;35.30;;;;;;6157137;28;83095;-66
2022/03/25 02:40:14;;;;;;;20.55;12.25;;;24.10;34.90;;;;;;6137106;28;83238;-67
2022/03/25 02:43:14;;;;;;;23.33;12.27;;;24.10;36.40;;;;;;6142382;28;85435;-67
2022/03/25 02:46:19;;;;;;;24.10;12.65;;;24.10;35.80;;;;;;6156378;28;85418;-68
2022/03/25 02:49:21;;;;;;;23.17;12.02;;;24.10;36.60;;;;;;6158235;28;83115;-68
2022/03/25 02:52:21;;;;;;;23.00;13.27;;;24.10;36.00;;;;;;6158225;28;83552;-68
2022/03/25 02:55:22;;;;;;;23.88;13.93;;;24.10;35.70;;;;;;6135826;28;83217;-67
2022/03/25 02:58:22;;;;;;;23.17;13.45;;;24.10;35.50;;;;;;6136017;28;83371;-67
2022/03/25 03:01:23;;;;;;;26.17;13.75;;;24.10;35.30;;;;;;6151222;28;83195;-69
2022/03/25 03:04:23;;;;;;;28.70;14.95;;;24.10;35.10;;;;;;6140960;28;84774;-68
2022/03/25 03:07:24;;;;;;;26.65;15.32;;;24.10;34.90;;;;;;6156175;28;82807;-67
2022/03/25 03:10:24;;;;;;;31.35;15.35;;;24.10;34.50;;;;;;6149309;28;85632;-67
2022/03/25 03:13:25;;;;;;;28.48;16.50;;;24.10;34.60;;;;;;6145405;28;83450;-67
2022/03/25 03:16:25;;;;;;;28.15;14.48;;;24.10;34.30;;;;;;6133338;28;83252;-67
2022/03/25 03:19:26;;;;;;;28.63;15.07;;;24.10;34.30;;;;;;6132611;28;84839;-67
2022/03/25 03:22:27;;;;;;;26.65;14.00;;;24.00;34.10;;;;;;6149108;28;90591;-65
2022/03/25 03:25:27;;;;;;;29.13;15.70;;;24.10;33.80;;;;;;6156683;28;83109;-67
2022/03/25 03:28:28;;;;;;;28.20;14.98;;;24.00;33.90;;;;;;6157125;28;83151;-67
2022/03/25 03:31:28;;;;;;;25.10;14.25;;;24.00;34.00;;;;;;6156152;28;83399;-66
2022/03/25 03:34:29;;;;;;;32.30;15.77;;;24.00;33.80;;;;;;6150510;28;83608;-67
2022/03/25 03:37:29;;;;;;;26.88;15.13;;;24.00;33.70;;;;;;6154563;28;83554;-67
2022/03/25 03:40:30;;;;;;;27.90;15.10;;;24.00;33.70;;;;;;6154859;28;83639;-66
2022/03/25 03:43:30;;;;;;;28.55;14.85;;;24.00;33.50;;;;;;6152565;28;83492;-67
2022/03/25 03:46:31;;;;;;;25.00;14.45;;;24.00;33.40;;;;;;6155708;28;84144;-67
2022/03/25 03:49:34;;;;;;;24.92;15.57;;;24.00;33.40;;;;;;6143906;28;86194;-67
2022/03/25 03:52:35;;;;;;;27.17;14.73;;;24.00;33.30;;;;;;6131361;28;84351;-68
2022/03/25 03:55:36;;;;;;;28.35;15.95;;;24.00;33.20;;;;;;6147213;28;83106;-68
2022/03/25 03:58:36;;;;;;;25.55;14.80;;;24.00;33.20;;;;;;6155497;28;83217;-67
2022/03/25 04:01:37;;;;;;;26.95;14.73;;;24.00;33.20;;;;;;6155333;28;84118;-67
2022/03/25 04:04:37;;;;;;;29.67;15.20;;;24.00;33.00;;;;;;6155474;28;83106;-68
2022/03/25 04:07:38;;;;;;;27.02;15.35;;;24.00;33.00;;;;;;6149837;28;82865;-69
2022/03/25 04:10:38;;;;;;;29.92;15.30;;;24.00;33.10;;;;;;6131914;28;83983;-67
2022/03/25 04:13:39;;;;;;;25.13;14.60;;;24.00;33.10;;;;;;6133611;28;82693;-67
2022/03/25 04:16:39;;;;;;;25.08;14.23;;;24.00;32.60;;;;;;6155461;28;84892;-67
2022/03/25 04:19:40;;;;;;;25.40;14.60;;;24.00;32.60;;;;;;6155573;28;83227;-66
2022/03/25 04:22:41;;;;;;;25.95;14.20;;;24.00;32.20;;;;;;6155786;28;83227;-66
2022/03/25 04:25:41;;;;;;;21.83;13.40;;;24.00;32.50;;;;;;6145384;28;83092;-67
2022/03/25 04:28:42;;;;;;;25.42;14.75;;;24.10;32.40;;;;;;6143240;28;83709;-67
2022/03/25 04:31:42;;;;;;;22.63;13.13;;;24.10;32.30;;;;;;6140360;28;83859;-68
2022/03/25 04:34:43;;;;;;;25.40;14.30;;;24.20;32.30;;;;;;6133786;28;85065;-68
2022/03/25 04:37:43;;;;;;;26.73;13.98;;;24.30;32.40;;;;;;6156722;28;83118;-69
2022/03/25 04:40:44;;;;;;;25.17;13.82;;;24.30;32.20;;;;;;6150257;28;83010;-68
2022/03/25 04:43:45;;;;;;;22.02;13.57;;;24.30;31.90;;;;;;6138444;28;83378;-68
2022/03/25 04:46:45;;;;;;;24.90;13.50;;;24.40;31.90;;;;;;6147139;28;83275;-68
2022/03/25 04:49:46;;;;;;;23.05;12.57;;;24.40;32.40;;;;;;6159285;28;83269;-69
2022/03/25 04:52:46;;;;;;;18.27;10.30;;;24.40;32.80;;;;;;6158736;28;83282;-67
2022/03/25 04:55:47;;;;;;;18.75;9.98;;;24.40;33.50;;;;;;6148070;28;83634;-73
2022/03/25 04:58:47;;;;;;;14.40;8.07;;;24.30;33.70;;;;;;6135142;28;83125;-68
2022/03/25 05:01:48;;;;;;;13.65;8.05;;;24.30;33.80;;;;;;6156075;28;82810;-68
2022/03/25 05:04:48;;;;;;;14.05;7.28;;;24.30;33.70;;;;;;6138030;28;80615;-68
2022/03/25 05:07:50;;;;;;;13.07;7.60;;;24.30;33.60;;;;;;6137883;28;80374;-67
2022/03/25 05:10:51;;;;;;;12.82;7.72;;;24.30;33.60;;;;;;6138050;28;80489;-67
2022/03/25 05:13:52;;;;;;;15.55;8.43;;;24.30;33.60;;;;;;6138271;28;85160;-70
2022/03/25 05:16:53;;;;;;;11.60;6.93;;;24.30;33.30;;;;;;6151080;28;80498;-63
2022/03/25 05:19:54;;;;;;;12.90;8.15;;;24.30;33.40;;;;;;6160066;28;80493;-64
2022/03/25 05:22:55;;;;;;;13.55;7.03;;;24.30;33.60;;;;;;6146094;28;80587;-64
2022/03/25 05:25:55;;;;;;;16.05;8.40;;;24.20;34.20;;;;;;6162220;28;80587;-65
2022/03/25 05:28:56;;;;;;;12.55;7.78;;;24.20;34.30;;;;;;6149560;28;80620;-66
2022/03/25 05:31:56;;;;;;;12.45;7.22;;;24.20;34.50;;;;;;6143696;28;80545;-65
2022/03/25 05:34:57;;;;;;;18.95;8.60;;;24.30;34.80;;;;;;6152565;28;80439;-67
2022/03/25 05:37:58;;;;;;;16.15;9.05;;;24.20;34.80;;;;;;6159929;28;80395;-66
2022/03/25 05:40:58;;;;;;;14.27;8.75;;;24.20;34.40;;;;;;6139730;28;80249;-67
2022/03/25 05:43:59;;;;;;;14.25;8.25;;;24.20;34.30;;;;;;6158015;28;80383;-65
2022/03/25 05:47:00;;;;;;;14.13;8.75;;;24.10;34.30;;;;;;6161599;28;80552;-73
2022/03/25 05:50:00;;;;;;;11.63;7.55;;;24.10;34.30;;;;;;6160682;28;81227;-70
2022/03/25 05:53:01;;;;;;;12.95;7.47;;;24.10;34.30;;;;;;6161697;28;80294;-65
2022/03/25 05:56:01;;;;;;;12.93;7.63;;;24.10;33.90;;;;;;6143021;28;80586;-69
2022/03/25 05:59:02;;;;;;;19.63;7.35;;;24.10;34.00;;;;;;6147914;28;80810;-70
2022/03/25 06:02:02;;;;;;;13.27;6.00;;;24.10;34.30;;;;;;6155350;28;80559;-65
2022/03/25 06:05:03;;;;;;;11.00;5.55;;;24.10;34.30;;;;;;6151190;28;80542;-71
2022/03/25 06:08:03;;;;;;;12.15;6.55;;;24.10;34.60;;;;;;6148532;28;80473;-66
2022/03/25 06:11:04;;;;;;;13.95;7.07;;;24.10;34.30;;;;;;6149712;28;80704;-65
2022/03/25 06:14:05;;;;;;;11.02;6.55;;;24.00;34.40;;;;;;6158428;28;80600;-65
2022/03/25 06:17:05;;;;;;;13.93;7.57;;;24.00;34.00;;;;;;6145460;28;81563;-65
2022/03/25 06:20:07;;;;;;;11.82;7.20;;;24.00;33.80;;;;;;6160157;28;80238;-65
2022/03/25 06:23:07;;;;;;;9.43;5.55;;;24.00;33.60;;;;;;6160557;28;80027;-66
2022/03/25 06:26:08;;;;;;;13.05;7.20;;;24.00;33.80;;;;;;6159575;28;80916;-67
2022/03/25 06:29:09;;;;;;;10.40;6.40;;;24.00;33.40;;;;;;6142952;28;82111;-67
2022/03/25 06:32:09;;;;;;;12.70;6.38;;;24.00;33.10;;;;;;6148207;28;81912;-67
2022/03/25 06:35:10;;;;;;;10.05;5.95;;;23.90;32.90;;;;;;6158590;28;80863;-66
2022/03/25 06:38:10;;;;;;;14.55;5.90;;;24.00;32.90;;;;;;6154681;28;80745;-66
2022/03/25 06:41:11;;;;;;;16.13;6.75;;;24.00;33.20;;;;;;6134388;28;80323;-69
2022/03/25 06:44:12;;;;;;;14.02;7.47;;;24.20;33.30;;;;;;6145319;28;80184;-67
2022/03/25 06:47:12;;;;;;;14.85;7.05;;;24.30;33.00;;;;;;6160388;28;80473;-68
2022/03/25 06:50:16;;;;;;;17.45;9.23;;;24.40;32.70;;;;;;6142899;28;80366;-67
2022/03/25 06:53:16;;;;;;;17.10;9.00;;;24.40;32.50;;;;;;6135520;28;80653;-68
2022/03/25 06:56:17;;;;;;;17.40;9.77;;;24.40;32.50;;;;;;6141300;28;84080;-68
2022/03/25 06:59:20;;;;;;;19.63;10.38;;;24.50;32.50;;;;;;6156767;28;81882;-69
2022/03/25 07:02:20;;;;;;;20.33;11.57;;;24.50;32.40;;;;;;6150172;28;83777;-68
2022/03/25 07:05:21;;;;;;;21.92;11.63;;;24.50;32.00;;;;;;6146467;28;83596;-67
2022/03/25 07:08:22;;;;;;;30.08;12.90;;;24.50;32.00;;;;;;6144862;28;83995;-67
2022/03/25 07:11:22;;;;;;;21.83;11.82;;;24.50;32.00;;;;;;6142434;28;83224;-67
2022/03/25 07:14:23;;;;;;;20.55;11.98;;;24.50;32.00;;;;;;6143417;28;83267;-67
2022/03/25 07:17:24;;;;;;;19.13;11.85;;;24.60;32.20;;;;;;6141354;28;83052;-68
2022/03/25 07:20:26;;;;;;;25.23;13.23;;;24.60;32.50;;;;;;6143155;28;82953;-67
2022/03/25 07:23:27;;;;;;;24.35;13.80;;;24.60;32.20;;;;;;6148340;28;83849;-69
2022/03/25 07:26:27;;;;;;;24.38;13.73;;;24.60;32.00;;;;;;6154132;28;83104;-69
2022/03/25 07:29:28;;;;;;;24.48;14.45;;;24.60;32.30;;;;;;6156085;28;82965;-69
2022/03/25 07:32:29;;;;;;;26.80;14.10;;;24.70;32.10;;;;;;6149797;28;83146;-68
2022/03/25 07:35:29;;;;;;;26.13;14.23;;;24.70;32.60;;;;;;6145547;28;84630;-68
2022/03/25 07:38:30;;;;;;;26.65;13.65;;;24.60;32.20;;;;;;6131761;28;83048;-68
2022/03/25 07:41:30;;;;;;;29.77;15.00;;;24.60;32.20;;;;;;6129896;28;86137;-69
2022/03/25 07:44:31;;;;;;;26.02;14.35;;;24.70;32.30;;;;;;6147376;28;82907;-68
2022/03/25 07:47:32;;;;;;;25.85;12.32;;;24.70;32.60;;;;;;6156285;28;90339;-69
2022/03/25 07:50:32;;;;;;;27.05;14.23;;;24.70;32.50;;;;;;6155751;28;82952;-67
2022/03/25 07:53:33;;;;;;;26.45;13.77;;;24.70;32.40;;;;;;6141858;28;83033;-67
2022/03/25 07:56:33;;;;;;;26.30;14.73;;;24.70;32.30;;;;;;6137958;28;83197;-67
2022/03/25 07:59:34;;;;;;;24.27;13.77;;;24.70;32.30;;;;;;6145341;28;83003;-68
2022/03/25 08:02:34;;;;;;;26.30;13.15;;;24.70;32.40;;;;;;6147652;28;83252;-68
2022/03/25 08:05:35;;;;;;;24.83;13.30;;;24.80;32.30;;;;;;6139398;28;83290;-68
2022/03/25 08:08:36;;;;;;;23.08;14.20;;;24.80;32.30;;;;;;6141439;28;83848;-66
2022/03/25 08:11:36;;;;;;;20.38;11.95;;;24.80;32.30;;;;;;6140197;28;83269;-66
2022/03/25 08:14:37;;;;;;;23.73;11.88;;;24.80;32.40;;;;;;6133631;28;84245;-70
2022/03/25 08:17:37;;;;;;;23.80;12.73;;;24.90;32.30;;;;;;6132775;28;83252;-69
2022/03/25 08:20:39;;;;;;;26.42;13.23;;;24.90;32.40;;;;;;6152347;28;83291;-69
2022/03/25 08:30:20;;;;;;;26.38;12.35;;;24.90;32.20;;;;;;6154811;28;83015;-67
2022/03/25 08:33:22;;;;;;;22.17;11.65;;;24.90;32.10;;;;;;6139284;28;83887;-68
2022/03/25 08:36:23;;;;;;;23.95;12.38;;;25.00;32.30;;;;;;6151813;28;84291;-70
2022/03/25 08:39:24;;;;;;;20.20;11.05;;;24.90;32.20;;;;;;6154303;28;83031;-69
2022/03/25 08:42:24;;;;;;;25.70;12.02;;;25.00;32.20;;;;;;6132796;28;84158;-70
2022/03/25 08:45:25;;;;;;;21.92;11.25;;;25.00;32.10;;;;;;6138922;28;84243;-67
2022/03/25 08:48:25;;;;;;;17.90;10.63;;;25.00;32.00;;;;;;6151384;28;82960;-68
2022/03/25 08:51:26;;;;;;;19.98;10.15;;;25.00;32.00;;;;;;6149296;28;82779;-68
2022/03/25 08:54:27;;;;;;;17.83;9.63;;;25.00;32.10;;;;;;6147698;28;83946;-68
2022/03/25 08:57:27;;;;;;;21.40;9.98;;;25.00;32.00;;;;;;6154627;28;81942;-68
2022/03/25 09:00:28;;;;;;;16.45;9.82;;;25.10;32.10;;;;;;6148761;28;82829;-68
2022/03/25 09:03:28;;;;;;;15.23;8.43;;;25.10;32.20;;;;;;6133379;28;83300;-68
2022/03/25 09:06:29;;;;;;;18.00;8.75;;;25.10;32.30;;;;;;6156591;28;80509;-68
2022/03/25 09:09:30;;;;;;;16.20;8.50;;;25.10;32.30;;;;;;6158780;28;80306;-70
2022/03/25 09:12:31;;;;;;;16.85;8.45;;;25.10;32.30;;;;;;6137027;28;80452;-70
2022/03/25 09:15:32;;;;;;;11.10;7.55;;;25.10;32.30;;;;;;6140373;28;83195;-67
2022/03/25 09:18:32;;;;;;;12.25;7.53;;;25.20;32.50;;;;;;6161437;28;80322;-71
2022/03/25 09:21:33;;;;;;;13.15;7.78;;;25.20;32.40;;;;;;6146685;28;80403;-68
2022/03/25 09:24:33;;;;;;;13.73;8.02;;;25.20;32.40;;;;;;6145218;28;80572;-71
2022/03/25 09:27:34;;;;;;;16.98;8.07;;;25.20;32.50;;;;;;6150847;28;80586;-70
2022/03/25 09:30:34;;;;;;;15.18;8.07;;;25.30;32.40;;;;;;6149641;28;80822;-68
2022/03/25 09:33:35;;;;;;;15.43;6.65;;;25.30;32.50;;;;;;6155171;28;82267;-70
2022/03/25 09:36:35;;;;;;;15.23;7.10;;;25.30;32.70;;;;;;6152076;28;80424;-69
2022/03/25 09:39:36;;;;;;;10.50;6.68;;;25.30;32.60;;;;;;6147128;28;80532;-68
2022/03/25 09:42:36;;;;;;;15.32;7.22;;;25.40;32.80;;;;;;6136751;28;81618;-68
2022/03/25 09:45:37;;;;;;;12.93;6.85;;;25.40;32.80;;;;;;6137665;28;81013;-68
2022/03/25 09:48:38;;;;;;;15.20;7.72;;;25.40;32.80;;;;;;6138018;28;80651;-69
2022/03/25 09:51:38;;;;;;;11.02;6.28;;;25.50;32.90;;;;;;6140708;28;80223;-68
2022/03/25 09:54:39;;;;;;;10.70;6.60;;;25.50;32.80;;;;;;6141380;28;80823;-68
2022/03/25 09:57:39;;;;;;;13.75;6.18;;;25.50;33.40;;;;;;6147867;28;81294;-70
2022/03/25 10:00:40;;;;;;;12.27;6.95;;;25.50;32.80;;;;;;6138083;28;82096;-69
2022/03/25 10:03:41;;;;;;;11.90;7.15;;;25.50;32.80;;;;;;6147792;28;81286;-78
2022/03/25 10:06:42;;;;;;;16.77;6.75;;;25.50;33.10;;;;;;6155516;28;80666;-75
2022/03/25 10:09:42;;;;;;;19.52;8.95;;;25.50;33.20;;;;;;6137462;28;80424;-69
2022/03/25 10:12:43;;;;;;;17.92;8.88;;;25.40;31.30;;;;;;6150011;28;81054;-70
2022/03/25 10:15:43;;;;;;;25.98;11.57;;;25.40;30.70;;;;;;6140725;28;80452;-69
2022/03/25 10:18:44;;;;;;;20.73;10.65;;;25.40;29.40;;;;;;6142792;28;83724;-69
2022/03/25 10:21:44;;;;;;;24.25;11.35;;;25.40;29.10;;;;;;6150894;28;83153;-69
2022/03/25 10:24:45;;;;;;;25.88;11.95;;;25.40;29.00;;;;;;6156402;28;83117;-69
2022/03/25 10:27:46;;;;;;;18.65;10.77;;;25.30;29.00;;;;;;6151448;28;83508;-69
2022/03/25 10:30:47;;;;;;;27.08;11.20;;;25.30;28.90;;;;;;6137809;28;83578;-72
2022/03/25 10:33:48;;;;;;;17.33;9.73;;;25.30;28.60;;;;;;6133061;28;83047;-72
2022/03/25 10:36:48;;;;;;;18.75;9.48;;;25.40;29.50;;;;;;6143545;28;83549;-72
2022/03/25 10:39:49;;;;;;;19.48;11.20;;;25.50;29.70;;;;;;6158741;28;83205;-72
2022/03/25 10:42:49;;;;;;;19.45;10.15;;;25.50;28.90;;;;;;6156613;28;82714;-73
2022/03/25 10:45:50;;;;;;;20.25;10.02;;;25.40;28.90;;;;;;6157546;28;83452;-74
2022/03/25 10:48:50;;;;;;;28.85;11.20;;;25.50;29.20;;;;;;6134274;28;83407;-74
2022/03/25 10:51:51;;;;;;;24.88;11.25;;;25.50;28.80;;;;;;6143398;28;83798;-70
2022/03/25 10:54:51;;;;;;;22.25;9.65;;;25.50;28.30;;;;;;6156918;28;83253;-71
2022/03/25 10:57:52;;;;;;;17.92;10.27;;;25.40;28.70;;;;;;6148200;28;81819;-71
2022/03/25 11:00:53;;;;;;;24.35;11.60;;;25.40;28.10;;;;;;6146627;28;83309;-73
2022/03/25 11:03:54;;;;;;;23.13;11.63;;;25.20;27.40;;;;;;6145416;28;83187;-70
2022/03/25 11:06:54;;;;;;;29.90;11.40;;;25.00;27.30;;;;;;6155968;28;83967;-72
2022/03/25 11:09:55;;;;;;;23.80;11.25;;;24.90;27.50;;;;;;6137601;28;83612;-73
2022/03/25 11:12:55;;;;;;;23.50;11.65;;;24.90;27.70;;;;;;6152496;28;83472;-70
2022/03/25 11:15:56;;;;;;;27.40;12.98;;;24.90;27.90;;;;;;6142489;28;83079;-70
2022/03/25 11:18:57;;;;;;;27.48;11.40;;;25.00;28.20;;;;;;6149960;28;83498;-73
2022/03/25 11:21:57;;;;;;;19.35;10.45;;;25.00;27.80;;;;;;6150770;28;83581;-70
2022/03/25 11:24:58;;;;;;;23.23;10.05;;;25.10;28.10;;;;;;6143678;28;83525;-70
2022/03/25 11:27:58;;;;;;;21.50;9.52;;;25.10;27.50;;;;;;6137522;28;83070;-71
2022/03/25 11:30:59;;;;;;;18.48;10.07;;;25.20;27.70;;;;;;6153960;28;82711;-70
2022/03/25 11:33:59;;;;;;;18.70;7.90;;;25.10;27.40;;;;;;6144367;28;83182;-70
2022/03/25 11:37:00;;;;;;;13.63;7.63;;;25.20;27.40;;;;;;6145096;28;82985;-69
2022/03/25 11:40:00;;;;;;;16.08;7.82;;;25.00;27.10;;;;;;6157783;28;80891;-70
2022/03/25 11:43:04;;;;;;;12.55;6.88;;;25.10;27.50;;;;;;6158538;28;80605;-70
2022/03/25 11:46:06;;;;;;;10.95;6.55;;;25.20;27.50;;;;;;6139120;28;81876;-71
2022/03/25 11:49:07;;;;;;;16.40;6.40;;;25.20;27.50;;;;;;6154905;28;80379;-69
2022/03/25 11:52:07;;;;;;;11.05;6.47;;;25.20;27.60;;;;;;6142232;28;81710;-69
2022/03/25 11:55:08;;;;;;;11.00;5.25;;;25.20;27.60;;;;;;6146608;28;80859;-70
2022/03/25 11:58:08;;;;;;;11.30;5.32;;;25.20;27.50;;;;;;6156886;28;80834;-70
2022/03/25 12:01:09;;;;;;;10.77;4.60;;;25.20;27.50;;;;;;6151418;28;80981;-70
2022/03/25 12:04:13;;;;;;;12.27;5.75;;;25.30;27.70;;;;;;6157443;28;80599;-70
2022/03/25 12:07:16;;;;;;;11.07;5.18;;;25.20;27.50;;;;;;6153934;28;80853;-68
2022/03/25 12:10:17;;;;;;;9.38;4.63;;;25.20;27.70;;;;;;6157636;28;80885;-68
2022/03/25 12:13:17;;;;;;;10.75;4.75;;;25.30;28.00;;;;;;6159119;28;80270;-68
2022/03/25 12:16:18;;;;;;;12.70;4.65;;;25.30;28.00;;;;;;6148838;28;80267;-68
2022/03/25 12:19:18;;;;;;;10.80;5.03;;;25.30;27.90;;;;;;6157257;28;80277;-68
2022/03/25 12:22:19;;;;;;;14.70;4.95;;;25.30;27.90;;;;;;6152806;28;80352;-68
2022/03/25 12:25:21;;;;;;;7.45;4.30;;;25.30;28.00;;;;;;6157943;28;80855;-68
2022/03/25 12:28:21;;;;;;;12.82;5.15;;;25.30;27.90;;;;;;6158479;28;80123;-69
2022/03/25 12:31:22;;;;;;;8.38;4.78;;;25.30;28.00;;;;;;6155945;28;82593;-68
2022/03/25 12:34:22;;;;;;;9.77;4.78;;;25.30;28.10;;;;;;6156637;28;81072;-69
2022/03/25 12:37:23;;;;;;;12.50;5.18;;;25.30;27.80;;;;;;6158212;28;80449;-69
2022/03/25 12:40:23;;;;;;;10.30;5.15;;;25.10;27.80;;;;;;6154002;28;80584;-69
2022/03/25 12:43:24;;;;;;;7.53;3.97;;;25.00;27.80;;;;;;6158253;28;80354;-71
2022/03/25 12:46:25;;;;;;;9.40;4.60;;;25.00;28.10;;;;;;6145233;28;80441;-69
2022/03/25 12:49:25;;;;;;;11.13;3.80;;;25.10;28.40;;;;;;6159020;28;82088;-67
2022/03/25 12:52:26;;;;;;;9.18;4.35;;;25.10;28.60;;;;;;6159017;28;80971;-67
2022/03/25 12:55:26;;;;;;;10.40;5.25;;;25.20;28.90;;;;;;6153831;28;80538;-66
2022/03/25 12:58:27;;;;;;;7.50;3.70;;;25.30;29.10;;;;;;6166847;28;89147;-66
2022/03/25 13:01:28;;;;;;;12.38;5.18;;;25.30;29.30;;;;;;6140473;28;80544;-72
2022/03/25 13:04:29;;;;;;;13.02;4.00;;;25.40;29.30;;;;;;6121182;28;80627;-66
2022/03/25 13:07:30;;;;;;;9.48;4.50;;;25.50;29.60;;;;;;6157471;28;80496;-68
2022/03/25 13:10:30;;;;;;;9.25;4.05;;;25.50;29.60;;;;;;6151307;28;81193;-66
2022/03/25 13:13:31;;;;;;;14.50;4.97;;;25.60;30.00;;;;;;6162719;28;80386;-66
2022/03/25 13:16:31;;;;;;;12.15;5.28;;;25.60;30.00;;;;;;6160914;28;81113;-67
2022/03/25 13:19:32;;;;;;;12.35;5.63;;;25.60;30.00;;;;;;6150466;28;81405;-64
2022/03/25 13:22:33;;;;;;;10.07;4.35;;;25.70;30.00;;;;;;6160700;28;81217;-66
2022/03/25 13:25:36;;;;;;;8.98;4.47;;;25.70;30.00;;;;;;6150737;28;80481;-66
2022/03/25 13:28:36;;;;;;;12.07;4.63;;;25.70;30.40;;;;;;6158006;28;81603;-64
2022/03/25 13:31:37;;;;;;;13.90;4.22;;;25.70;30.00;;;;;;6150097;28;81631;-65
2022/03/25 13:34:37;;;;;;;11.02;4.57;;;25.80;30.00;;;;;;6155885;28;80446;-65
2022/03/25 13:37:38;;;;;;;9.48;4.65;;;25.70;30.10;;;;;;6152387;28;81448;-65
2022/03/25 13:40:38;;;;;;;11.23;4.90;;;25.70;30.00;;;;;;6155711;28;80378;-65
2022/03/25 13:43:40;;;;;;;16.40;5.15;;;25.70;30.40;;;;;;6144112;28;80269;-64
2022/03/25 13:46:40;;;;;;;8.27;4.43;;;25.70;30.00;;;;;;6145718;28;81642;-64
2022/03/25 13:49:41;;;;;;;7.43;3.72;;;25.80;30.40;;;;;;6155707;28;80210;-65
2022/03/25 13:52:42;;;;;;;13.02;4.60;;;25.80;30.10;;;;;;6153361;28;81860;-64
2022/03/25 13:55:43;;;;;;;7.05;4.03;;;25.80;30.00;;;;;;6150156;28;80792;-64
2022/03/25 13:58:43;;;;;;;8.80;5.13;;;25.80;30.10;;;;;;6161493;28;80620;-64
2022/03/25 14:01:44;;;;;;;8.00;4.50;;;25.80;30.00;;;;;;6161319;28;80367;-64
2022/03/25 14:04:44;;;;;;;15.35;4.85;;;25.90;30.30;;;;;;6156089;28;80418;-64
2022/03/25 14:07:46;;;;;;;7.90;4.70;;;25.90;30.10;;;;;;6145409;28;80576;-65
2022/03/25 14:10:47;;;;;;;4.82;3.55;;;25.80;30.10;;;;;;6148898;28;80347;-65
2022/03/25 14:13:47;;;;;;;7.00;4.05;;;25.80;30.60;;;;;;6160491;28;80654;-65
2022/03/25 14:16:48;;;;;;;15.02;5.03;;;25.80;30.40;;;;;;6148582;28;81447;-65
2022/03/25 14:19:48;;;;;;;8.13;4.20;;;25.80;30.40;;;;;;6159149;28;81533;-66
2022/03/25 14:22:49;;;;;;;12.77;5.22;;;25.80;30.30;;;;;;6160643;28;81473;-67
2022/03/25 14:25:49;;;;;;;12.23;4.68;;;25.80;29.90;;;;;;6159993;28;81393;-66
2022/03/25 14:28:50;;;;;;;7.28;4.40;;;25.70;29.70;;;;;;6154234;28;80667;-66
2022/03/25 14:31:50;;;;;;;13.52;4.55;;;25.70;29.90;;;;;;6148208;28;82069;-67
2022/03/25 14:34:51;;;;;;;10.60;5.18;;;25.70;29.90;;;;;;6150961;28;80304;-66
2022/03/25 14:37:51;;;;;;;8.85;4.38;;;25.70;29.70;;;;;;6143321;28;80612;-65
2022/03/25 14:40:52;;;;;;;9.45;4.45;;;25.60;29.50;;;;;;6137941;28;80477;-66
2022/03/25 14:43:52;;;;;;;11.38;4.45;;;25.60;29.40;;;;;;6142998;28;80619;-66
2022/03/25 14:46:53;;;;;;;10.65;4.57;;;25.60;29.60;;;;;;6159666;28;80274;-73
2022/03/25 14:49:53;;;;;;;10.27;4.63;;;25.60;29.80;;;;;;6151149;28;80499;-65
2022/03/25 14:52:54;;;;;;;6.10;4.32;;;25.60;29.70;;;;;;6156719;28;81481;-65
2022/03/25 14:55:54;;;;;;;9.77;4.60;;;25.60;29.80;;;;;;6158562;28;80416;-68
2022/03/25 14:58:55;;;;;;;9.75;4.82;;;25.60;29.90;;;;;;6158471;28;81388;-65
2022/03/25 15:01:55;;;;;;;10.70;5.28;;;25.60;29.90;;;;;;6156194;28;80952;-65
2022/03/25 15:04:59;;;;;;;8.00;5.03;;;25.60;29.60;;;;;;6153525;28;81488;-66
2022/03/25 15:07:59;;;;;;;12.10;5.13;;;25.60;29.60;;;;;;6160947;28;80352;-66
2022/03/25 15:11:00;;;;;;;6.25;3.90;;;25.60;29.70;;;;;;6154386;28;80617;-66
2022/03/25 15:14:00;;;;;;;10.35;5.13;;;25.50;29.40;;;;;;6157239;28;80723;-66
2022/03/25 15:17:01;;;;;;;10.93;4.82;;;25.50;29.50;;;;;;6148306;28;80499;-66
2022/03/25 15:20:02;;;;;;;12.70;4.30;;;25.50;29.50;;;;;;6159535;28;81697;-65
2022/03/25 15:23:03;;;;;;;10.50;4.40;;;25.40;29.60;;;;;;6154167;28;81245;-66
2022/03/25 15:26:03;;;;;;;14.07;4.85;;;25.50;29.80;;;;;;6156629;28;80955;-67
2022/03/25 15:29:04;;;;;;;8.27;4.82;;;25.40;29.60;;;;;;6153761;28;80504;-66